sensor_id;sensor_type;location;lat;lon;timestamp;temperature;humidity
40153;DHT22;26371;56.992;23.912;2023-01-15T00:00:08;4.80;99.90
40153;DHT22;26371;56.992;23.912;2023-01-15T00:02:39;4.70;99.90
40153;DHT22;26371;56.992;23.912;2023-01-15T00:05:08;4.80;99.90
40153;DHT22;26371;56.992;23.912;2023-01-15T00:07:36;4.80;99.90
40153;DHT22;26371;56.992;23.912;2023-01-15T00:10:07;4.80;99.90
40153;DHT22;26371;56.992;23.912;2023-01-15T00:12:36;4.80;99.90
40153;DHT22;26371;56.992;23.912;2023-01-15T00:15:05;4.80;99.90
40153;DHT22;26371;56.992;23.912;2023-01-15T00:17:34;4.90;99.90
40153;DHT22;26371;56.992;23.912;2023-01-15T00:20:05;4.80;99.90
40153;DHT22;26371;56.992;23.912;2023-01-15T00:22:34;4.80;99.90
40153;DHT22;26371;56.992;23.912;2023-01-15T00:25:03;4.80;99.90
40153;DHT22;26371;56.992;23.912;2023-01-15T00:27:49;4.80;99.90
40153;DHT22;26371;56.992;23.912;2023-01-15T00:30:18;4.80;99.90
40153;DHT22;26371;56.992;23.912;2023-01-15T00:32:46;4.80;99.90
40153;DHT22;26371;56.992;23.912;2023-01-15T00:35:18;4.80;99.90
40153;DHT22;26371;56.992;23.912;2023-01-15T00:37:48;4.80;99.90
40153;DHT22;26371;56.992;23.912;2023-01-15T00:40:18;4.80;99.90
40153;DHT22;26371;56.992;23.912;2023-01-15T00:42:47;4.80;99.90
40153;DHT22;26371;56.992;23.912;2023-01-15T00:45:21;4.80;99.90
40153;DHT22;26371;56.992;23.912;2023-01-15T00:47:50;4.90;99.90
40153;DHT22;26371;56.992;23.912;2023-01-15T00:50:21;4.90;99.90
40153;DHT22;26371;56.992;23.912;2023-01-15T00:52:50;4.90;99.90
40153;DHT22;26371;56.992;23.912;2023-01-15T00:55:19;4.90;99.90
40153;DHT22;26371;56.992;23.912;2023-01-15T00:57:48;4.80;99.90
40153;DHT22;26371;56.992;23.912;2023-01-15T01:00:17;4.80;99.90
40153;DHT22;26371;56.992;23.912;2023-01-15T01:02:45;4.80;99.90
40153;DHT22;26371;56.992;23.912;2023-01-15T01:05:14;4.80;99.90
40153;DHT22;26371;56.992;23.912;2023-01-15T01:07:44;4.80;99.90
40153;DHT22;26371;56.992;23.912;2023-01-15T01:10:14;4.80;99.90
40153;DHT22;26371;56.992;23.912;2023-01-15T01:12:43;4.80;99.90
40153;DHT22;26371;56.992;23.912;2023-01-15T01:15:12;4.80;99.90
40153;DHT22;26371;56.992;23.912;2023-01-15T01:17:41;4.80;99.90
40153;DHT22;26371;56.992;23.912;2023-01-15T01:20:12;4.80;99.90
40153;DHT22;26371;56.992;23.912;2023-01-15T01:22:41;4.80;99.90
40153;DHT22;26371;56.992;23.912;2023-01-15T01:25:11;4.80;99.90
40153;DHT22;26371;56.992;23.912;2023-01-15T01:27:39;4.80;99.90
40153;DHT22;26371;56.992;23.912;2023-01-15T01:30:12;4.80;99.90
40153;DHT22;26371;56.992;23.912;2023-01-15T01:32:43;4.80;99.90
40153;DHT22;26371;56.992;23.912;2023-01-15T01:35:12;4.80;99.90
40153;DHT22;26371;56.992;23.912;2023-01-15T01:37:41;4.80;99.90
40153;DHT22;26371;56.992;23.912;2023-01-15T01:40:12;4.80;99.90
40153;DHT22;26371;56.992;23.912;2023-01-15T01:42:41;4.80;99.90
40153;DHT22;26371;56.992;23.912;2023-01-15T01:45:18;4.80;99.90
40153;DHT22;26371;56.992;23.912;2023-01-15T01:47:53;4.80;99.90
40153;DHT22;26371;56.992;23.912;2023-01-15T01:50:22;4.80;99.90
40153;DHT22;26371;56.992;23.912;2023-01-15T01:53:00;4.80;99.90
40153;DHT22;26371;56.992;23.912;2023-01-15T01:55:33;4.80;99.90
40153;DHT22;26371;56.992;23.912;2023-01-15T01:58:03;4.90;99.90
40153;DHT22;26371;56.992;23.912;2023-01-15T02:00:35;4.90;99.90
40153;DHT22;26371;56.992;23.912;2023-01-15T02:03:07;4.90;99.90
40153;DHT22;26371;56.992;23.912;2023-01-15T02:05:38;4.90;99.90
40153;DHT22;26371;56.992;23.912;2023-01-15T02:08:07;4.90;99.90
40153;DHT22;26371;56.992;23.912;2023-01-15T02:10:38;4.90;99.90
40153;DHT22;26371;56.992;23.912;2023-01-15T02:13:15;4.90;99.90
40153;DHT22;26371;56.992;23.912;2023-01-15T02:15:50;4.90;99.90
40153;DHT22;26371;56.992;23.912;2023-01-15T02:18:29;4.90;99.90
40153;DHT22;26371;56.992;23.912;2023-01-15T02:21:03;4.90;99.90
40153;DHT22;26371;56.992;23.912;2023-01-15T02:23:56;4.90;99.90
40153;DHT22;26371;56.992;23.912;2023-01-15T02:29:41;4.90;99.90
40153;DHT22;26371;56.992;23.912;2023-01-15T02:32:17;4.90;99.90
40153;DHT22;26371;56.992;23.912;2023-01-15T02:34:51;5.00;99.90
40153;DHT22;26371;56.992;23.912;2023-01-15T02:37:25;4.90;99.90
40153;DHT22;26371;56.992;23.912;2023-01-15T02:39:56;5.00;99.90
40153;DHT22;26371;56.992;23.912;2023-01-15T02:42:27;5.00;99.90
40153;DHT22;26371;56.992;23.912;2023-01-15T02:45:01;5.00;99.90
40153;DHT22;26371;56.992;23.912;2023-01-15T02:47:34;5.00;99.90
40153;DHT22;26371;56.992;23.912;2023-01-15T02:50:11;5.00;99.90
40153;DHT22;26371;56.992;23.912;2023-01-15T02:52:43;5.00;99.90
40153;DHT22;26371;56.992;23.912;2023-01-15T02:55:19;5.00;99.90
40153;DHT22;26371;56.992;23.912;2023-01-15T02:57:53;5.00;99.90
40153;DHT22;26371;56.992;23.912;2023-01-15T03:00:25;5.00;99.90
40153;DHT22;26371;56.992;23.912;2023-01-15T03:03:01;5.00;99.90
40153;DHT22;26371;56.992;23.912;2023-01-15T03:05:37;5.00;99.90
40153;DHT22;26371;56.992;23.912;2023-01-15T03:08:09;5.00;99.90
40153;DHT22;26371;56.992;23.912;2023-01-15T03:10:45;5.00;99.90
40153;DHT22;26371;56.992;23.912;2023-01-15T03:13:18;5.00;99.90
40153;DHT22;26371;56.992;23.912;2023-01-15T03:15:58;5.00;99.90
40153;DHT22;26371;56.992;23.912;2023-01-15T03:18:50;5.00;99.90
40153;DHT22;26371;56.992;23.912;2023-01-15T03:21:25;5.00;99.90
40153;DHT22;26371;56.992;23.912;2023-01-15T03:23:55;5.00;99.90
40153;DHT22;26371;56.992;23.912;2023-01-15T03:26:28;5.00;99.90
40153;DHT22;26371;56.992;23.912;2023-01-15T03:28:59;5.00;99.90
40153;DHT22;26371;56.992;23.912;2023-01-15T03:31:32;5.00;99.90
40153;DHT22;26371;56.992;23.912;2023-01-15T03:34:02;5.00;99.90
40153;DHT22;26371;56.992;23.912;2023-01-15T03:36:30;5.00;99.90
40153;DHT22;26371;56.992;23.912;2023-01-15T03:39:02;5.00;99.90
40153;DHT22;26371;56.992;23.912;2023-01-15T03:42:02;5.00;99.90
40153;DHT22;26371;56.992;23.912;2023-01-15T03:44:37;5.00;99.90
40153;DHT22;26371;56.992;23.912;2023-01-15T03:47:25;4.90;99.90
40153;DHT22;26371;56.992;23.912;2023-01-15T03:50:03;5.00;99.90
40153;DHT22;26371;56.992;23.912;2023-01-15T03:52:45;5.00;99.90
40153;DHT22;26371;56.992;23.912;2023-01-15T03:55:21;5.00;99.90
40153;DHT22;26371;56.992;23.912;2023-01-15T03:58:04;5.00;99.90
40153;DHT22;26371;56.992;23.912;2023-01-15T04:00:41;5.00;99.90
40153;DHT22;26371;56.992;23.912;2023-01-15T04:03:13;5.00;99.90
40153;DHT22;26371;56.992;23.912;2023-01-15T04:05:43;5.00;99.90
40153;DHT22;26371;56.992;23.912;2023-01-15T04:08:20;5.00;99.90
40153;DHT22;26371;56.992;23.912;2023-01-15T04:10:51;5.00;99.90
40153;DHT22;26371;56.992;23.912;2023-01-15T04:13:22;5.00;99.90
40153;DHT22;26371;56.992;23.912;2023-01-15T04:15:53;5.00;99.90
40153;DHT22;26371;56.992;23.912;2023-01-15T04:18:26;5.00;99.90
40153;DHT22;26371;56.992;23.912;2023-01-15T04:20:56;5.00;99.90
40153;DHT22;26371;56.992;23.912;2023-01-15T04:23:25;5.00;99.90
40153;DHT22;26371;56.992;23.912;2023-01-15T04:25:54;5.00;99.90
40153;DHT22;26371;56.992;23.912;2023-01-15T04:28:24;5.00;99.90
40153;DHT22;26371;56.992;23.912;2023-01-15T04:30:56;4.90;99.90
40153;DHT22;26371;56.992;23.912;2023-01-15T04:33:27;5.00;99.90
40153;DHT22;26371;56.992;23.912;2023-01-15T04:35:58;4.90;99.90
40153;DHT22;26371;56.992;23.912;2023-01-15T04:38:27;4.90;99.90
40153;DHT22;26371;56.992;23.912;2023-01-15T04:40:59;4.90;99.90
40153;DHT22;26371;56.992;23.912;2023-01-15T04:43:46;4.80;99.90
40153;DHT22;26371;56.992;23.912;2023-01-15T04:46:33;4.80;99.90
40153;DHT22;26371;56.992;23.912;2023-01-15T04:49:03;4.80;99.90
40153;DHT22;26371;56.992;23.912;2023-01-15T04:51:31;4.80;99.90
40153;DHT22;26371;56.992;23.912;2023-01-15T04:54:01;4.70;99.90
40153;DHT22;26371;56.992;23.912;2023-01-15T04:56:30;4.70;99.90
40153;DHT22;26371;56.992;23.912;2023-01-15T04:59:01;4.70;99.90
40153;DHT22;26371;56.992;23.912;2023-01-15T05:01:30;4.70;99.90
40153;DHT22;26371;56.992;23.912;2023-01-15T05:03:59;4.60;99.90
40153;DHT22;26371;56.992;23.912;2023-01-15T05:06:29;4.60;99.90
40153;DHT22;26371;56.992;23.912;2023-01-15T05:08:59;4.60;99.90
40153;DHT22;26371;56.992;23.912;2023-01-15T05:11:28;4.60;99.90
40153;DHT22;26371;56.992;23.912;2023-01-15T05:13:56;4.60;99.90
40153;DHT22;26371;56.992;23.912;2023-01-15T05:16:26;4.60;99.90
40153;DHT22;26371;56.992;23.912;2023-01-15T05:18:58;4.50;99.90
40153;DHT22;26371;56.992;23.912;2023-01-15T05:21:31;4.60;99.90
40153;DHT22;26371;56.992;23.912;2023-01-15T05:24:02;4.60;99.90
40153;DHT22;26371;56.992;23.912;2023-01-15T05:26:33;4.60;99.90
40153;DHT22;26371;56.992;23.912;2023-01-15T05:29:02;4.60;99.90
40153;DHT22;26371;56.992;23.912;2023-01-15T05:31:31;4.60;99.90
40153;DHT22;26371;56.992;23.912;2023-01-15T05:34:00;4.60;99.90
40153;DHT22;26371;56.992;23.912;2023-01-15T05:36:31;4.50;99.90
40153;DHT22;26371;56.992;23.912;2023-01-15T05:38:59;4.50;99.90
40153;DHT22;26371;56.992;23.912;2023-01-15T05:41:29;4.50;99.90
40153;DHT22;26371;56.992;23.912;2023-01-15T05:44:18;4.50;99.90
40153;DHT22;26371;56.992;23.912;2023-01-15T05:46:47;4.50;99.90
40153;DHT22;26371;56.992;23.912;2023-01-15T05:49:18;4.50;99.90
40153;DHT22;26371;56.992;23.912;2023-01-15T05:51:52;4.50;99.90
40153;DHT22;26371;56.992;23.912;2023-01-15T05:54:23;4.50;99.90
40153;DHT22;26371;56.992;23.912;2023-01-15T05:56:53;4.50;99.90
40153;DHT22;26371;56.992;23.912;2023-01-15T05:59:24;4.50;99.90
40153;DHT22;26371;56.992;23.912;2023-01-15T06:01:53;4.50;99.90
40153;DHT22;26371;56.992;23.912;2023-01-15T06:04:22;4.50;99.90
40153;DHT22;26371;56.992;23.912;2023-01-15T06:06:54;4.50;99.90
40153;DHT22;26371;56.992;23.912;2023-01-15T06:09:23;4.50;99.90
40153;DHT22;26371;56.992;23.912;2023-01-15T06:11:55;4.50;99.90
40153;DHT22;26371;56.992;23.912;2023-01-15T06:14:24;4.50;99.90
40153;DHT22;26371;56.992;23.912;2023-01-15T06:16:52;4.40;99.90
40153;DHT22;26371;56.992;23.912;2023-01-15T06:19:21;4.50;99.90
40153;DHT22;26371;56.992;23.912;2023-01-15T06:21:50;4.50;99.90
40153;DHT22;26371;56.992;23.912;2023-01-15T06:24:20;4.40;99.90
40153;DHT22;26371;56.992;23.912;2023-01-15T06:26:49;4.50;99.90
40153;DHT22;26371;56.992;23.912;2023-01-15T06:29:19;4.50;99.90
40153;DHT22;26371;56.992;23.912;2023-01-15T06:31:48;4.50;99.90
40153;DHT22;26371;56.992;23.912;2023-01-15T06:34:17;4.50;99.90
40153;DHT22;26371;56.992;23.912;2023-01-15T06:36:45;4.50;99.90
40153;DHT22;26371;56.992;23.912;2023-01-15T06:39:14;4.50;99.90
40153;DHT22;26371;56.992;23.912;2023-01-15T06:41:45;4.40;99.90
40153;DHT22;26371;56.992;23.912;2023-01-15T06:44:27;4.50;99.90
40153;DHT22;26371;56.992;23.912;2023-01-15T06:47:14;4.40;99.90
40153;DHT22;26371;56.992;23.912;2023-01-15T06:49:53;4.50;99.90
40153;DHT22;26371;56.992;23.912;2023-01-15T06:52:22;4.40;99.90
40153;DHT22;26371;56.992;23.912;2023-01-15T06:54:51;4.40;99.90
40153;DHT22;26371;56.992;23.912;2023-01-15T06:57:21;4.40;99.90
40153;DHT22;26371;56.992;23.912;2023-01-15T06:59:50;4.40;99.90
40153;DHT22;26371;56.992;23.912;2023-01-15T07:02:19;4.40;99.90
40153;DHT22;26371;56.992;23.912;2023-01-15T07:04:48;4.40;99.90
40153;DHT22;26371;56.992;23.912;2023-01-15T07:07:19;4.30;99.90
40153;DHT22;26371;56.992;23.912;2023-01-15T07:09:48;4.30;99.90
40153;DHT22;26371;56.992;23.912;2023-01-15T07:12:17;4.30;99.90
40153;DHT22;26371;56.992;23.912;2023-01-15T07:14:47;4.30;99.90
40153;DHT22;26371;56.992;23.912;2023-01-15T07:17:16;4.30;99.90
40153;DHT22;26371;56.992;23.912;2023-01-15T07:19:45;4.30;99.90
40153;DHT22;26371;56.992;23.912;2023-01-15T07:22:14;4.20;99.90
40153;DHT22;26371;56.992;23.912;2023-01-15T07:24:42;4.20;99.90
40153;DHT22;26371;56.992;23.912;2023-01-15T07:27:11;4.20;99.90
40153;DHT22;26371;56.992;23.912;2023-01-15T07:29:40;4.20;99.90
40153;DHT22;26371;56.992;23.912;2023-01-15T07:32:10;4.20;99.90
40153;DHT22;26371;56.992;23.912;2023-01-15T07:34:39;4.20;99.90
40153;DHT22;26371;56.992;23.912;2023-01-15T07:37:08;4.20;99.90
40153;DHT22;26371;56.992;23.912;2023-01-15T07:39:37;4.20;99.90
40153;DHT22;26371;56.992;23.912;2023-01-15T07:42:08;4.20;99.90
40153;DHT22;26371;56.992;23.912;2023-01-15T07:44:54;4.20;99.90
40153;DHT22;26371;56.992;23.912;2023-01-15T07:47:44;4.20;99.90
40153;DHT22;26371;56.992;23.912;2023-01-15T07:50:30;4.20;99.90
40153;DHT22;26371;56.992;23.912;2023-01-15T07:52:58;4.20;99.90
40153;DHT22;26371;56.992;23.912;2023-01-15T07:55:27;4.20;99.90
40153;DHT22;26371;56.992;23.912;2023-01-15T07:57:57;4.20;99.90
40153;DHT22;26371;56.992;23.912;2023-01-15T08:00:26;4.20;99.90
40153;DHT22;26371;56.992;23.912;2023-01-15T08:02:56;4.20;99.90
40153;DHT22;26371;56.992;23.912;2023-01-15T08:05:25;4.30;99.90
40153;DHT22;26371;56.992;23.912;2023-01-15T08:07:55;4.20;99.90
40153;DHT22;26371;56.992;23.912;2023-01-15T08:10:23;4.20;99.90
40153;DHT22;26371;56.992;23.912;2023-01-15T08:12:52;4.30;99.90
40153;DHT22;26371;56.992;23.912;2023-01-15T08:15:39;4.30;99.90
40153;DHT22;26371;56.992;23.912;2023-01-15T08:18:14;4.30;99.90
40153;DHT22;26371;56.992;23.912;2023-01-15T08:20:45;4.30;99.90
40153;DHT22;26371;56.992;23.912;2023-01-15T08:23:13;4.30;99.90
40153;DHT22;26371;56.992;23.912;2023-01-15T08:25:42;4.20;99.90
40153;DHT22;26371;56.992;23.912;2023-01-15T08:28:11;4.20;99.90
40153;DHT22;26371;56.992;23.912;2023-01-15T08:30:40;4.20;99.90
40153;DHT22;26371;56.992;23.912;2023-01-15T08:33:09;4.30;99.90
40153;DHT22;26371;56.992;23.912;2023-01-15T08:35:39;4.20;99.90
40153;DHT22;26371;56.992;23.912;2023-01-15T08:38:08;4.20;99.90
40153;DHT22;26371;56.992;23.912;2023-01-15T08:40:37;4.20;99.90
40153;DHT22;26371;56.992;23.912;2023-01-15T08:43:25;4.20;99.90
40153;DHT22;26371;56.992;23.912;2023-01-15T08:45:55;4.20;99.90
40153;DHT22;26371;56.992;23.912;2023-01-15T08:48:26;4.20;99.90
40153;DHT22;26371;56.992;23.912;2023-01-15T08:50:57;4.20;99.90
40153;DHT22;26371;56.992;23.912;2023-01-15T08:53:25;4.20;99.90
40153;DHT22;26371;56.992;23.912;2023-01-15T08:55:55;4.20;99.90
40153;DHT22;26371;56.992;23.912;2023-01-15T08:58:27;4.20;99.90
40153;DHT22;26371;56.992;23.912;2023-01-15T09:01:03;4.10;99.90
40153;DHT22;26371;56.992;23.912;2023-01-15T09:03:32;4.10;99.90
40153;DHT22;26371;56.992;23.912;2023-01-15T09:06:03;4.10;99.90
40153;DHT22;26371;56.992;23.912;2023-01-15T09:08:32;4.10;99.90
40153;DHT22;26371;56.992;23.912;2023-01-15T09:11:03;4.10;99.90
40153;DHT22;26371;56.992;23.912;2023-01-15T09:13:32;4.10;99.90
40153;DHT22;26371;56.992;23.912;2023-01-15T09:16:02;4.10;99.90
40153;DHT22;26371;56.992;23.912;2023-01-15T09:18:31;4.10;99.90
40153;DHT22;26371;56.992;23.912;2023-01-15T09:21:04;4.10;99.90
40153;DHT22;26371;56.992;23.912;2023-01-15T09:23:33;4.10;99.90
40153;DHT22;26371;56.992;23.912;2023-01-15T09:26:04;4.10;99.90
40153;DHT22;26371;56.992;23.912;2023-01-15T09:28:33;4.10;99.90
40153;DHT22;26371;56.992;23.912;2023-01-15T09:31:02;4.10;99.90
40153;DHT22;26371;56.992;23.912;2023-01-15T09:33:31;4.10;99.90
40153;DHT22;26371;56.992;23.912;2023-01-15T09:35:59;4.00;99.90
40153;DHT22;26371;56.992;23.912;2023-01-15T09:38:30;4.00;99.90
40153;DHT22;26371;56.992;23.912;2023-01-15T09:41:07;4.00;99.90
40153;DHT22;26371;56.992;23.912;2023-01-15T09:44:15;4.10;99.90
40153;DHT22;26371;56.992;23.912;2023-01-15T09:46:56;4.10;99.90
40153;DHT22;26371;56.992;23.912;2023-01-15T09:49:37;4.10;99.90
40153;DHT22;26371;56.992;23.912;2023-01-15T09:52:15;4.00;99.90
40153;DHT22;26371;56.992;23.912;2023-01-15T09:54:55;4.00;99.90
40153;DHT22;26371;56.992;23.912;2023-01-15T09:57:27;4.00;99.90
40153;DHT22;26371;56.992;23.912;2023-01-15T09:59:57;4.00;99.90
40153;DHT22;26371;56.992;23.912;2023-01-15T10:02:42;4.00;99.90
40153;DHT22;26371;56.992;23.912;2023-01-15T10:05:16;4.00;99.90
40153;DHT22;26371;56.992;23.912;2023-01-15T10:07:54;4.00;99.90
40153;DHT22;26371;56.992;23.912;2023-01-15T10:10:30;4.00;99.90
40153;DHT22;26371;56.992;23.912;2023-01-15T10:13:07;3.90;99.90
40153;DHT22;26371;56.992;23.912;2023-01-15T10:15:41;3.90;99.90
40153;DHT22;26371;56.992;23.912;2023-01-15T10:18:14;3.90;99.90
40153;DHT22;26371;56.992;23.912;2023-01-15T10:20:54;3.90;99.90
40153;DHT22;26371;56.992;23.912;2023-01-15T10:23:36;3.90;99.90
40153;DHT22;26371;56.992;23.912;2023-01-15T10:26:13;3.90;99.90
40153;DHT22;26371;56.992;23.912;2023-01-15T10:28:57;3.80;99.90
40153;DHT22;26371;56.992;23.912;2023-01-15T10:31:49;3.80;99.90
40153;DHT22;26371;56.992;23.912;2023-01-15T10:34:42;3.80;99.90
40153;DHT22;26371;56.992;23.912;2023-01-15T10:37:19;3.80;99.90
40153;DHT22;26371;56.992;23.912;2023-01-15T10:40:00;3.80;99.90
40153;DHT22;26371;56.992;23.912;2023-01-15T10:42:42;3.80;99.90
40153;DHT22;26371;56.992;23.912;2023-01-15T10:45:17;3.80;99.90
40153;DHT22;26371;56.992;23.912;2023-01-15T10:47:52;3.80;99.90
40153;DHT22;26371;56.992;23.912;2023-01-15T10:50:23;3.70;99.90
40153;DHT22;26371;56.992;23.912;2023-01-15T10:53:02;3.80;99.90
40153;DHT22;26371;56.992;23.912;2023-01-15T10:55:36;3.70;99.90
40153;DHT22;26371;56.992;23.912;2023-01-15T10:58:21;3.70;99.90
40153;DHT22;26371;56.992;23.912;2023-01-15T11:00:59;3.70;99.90
40153;DHT22;26371;56.992;23.912;2023-01-15T11:03:33;3.60;99.90
40153;DHT22;26371;56.992;23.912;2023-01-15T11:06:04;3.60;99.90
40153;DHT22;26371;56.992;23.912;2023-01-15T11:08:35;3.60;99.90
40153;DHT22;26371;56.992;23.912;2023-01-15T11:11:28;3.60;99.90
40153;DHT22;26371;56.992;23.912;2023-01-15T11:14:35;3.60;99.90
40153;DHT22;26371;56.992;23.912;2023-01-15T11:17:23;3.60;99.90
40153;DHT22;26371;56.992;23.912;2023-01-15T11:20:19;3.60;99.90
40153;DHT22;26371;56.992;23.912;2023-01-15T11:22:49;3.50;99.90
40153;DHT22;26371;56.992;23.912;2023-01-15T11:25:26;3.50;99.90
40153;DHT22;26371;56.992;23.912;2023-01-15T11:27:55;3.50;99.90
40153;DHT22;26371;56.992;23.912;2023-01-15T11:30:28;3.50;99.90
40153;DHT22;26371;56.992;23.912;2023-01-15T11:33:00;3.50;99.90
40153;DHT22;26371;56.992;23.912;2023-01-15T11:35:32;3.50;99.90
40153;DHT22;26371;56.992;23.912;2023-01-15T11:38:03;3.50;99.90
40153;DHT22;26371;56.992;23.912;2023-01-15T11:40:32;3.50;99.90
40153;DHT22;26371;56.992;23.912;2023-01-15T11:43:01;3.50;99.90
40153;DHT22;26371;56.992;23.912;2023-01-15T11:45:50;3.50;99.90
40153;DHT22;26371;56.992;23.912;2023-01-15T11:48:45;3.50;99.90
40153;DHT22;26371;56.992;23.912;2023-01-15T11:51:33;3.40;99.90
40153;DHT22;26371;56.992;23.912;2023-01-15T11:54:11;3.40;99.90
40153;DHT22;26371;56.992;23.912;2023-01-15T11:56:42;3.40;99.90
40153;DHT22;26371;56.992;23.912;2023-01-15T11:59:13;3.40;99.90
40153;DHT22;26371;56.992;23.912;2023-01-15T12:01:51;3.40;99.90
40153;DHT22;26371;56.992;23.912;2023-01-15T12:04:36;3.40;99.90
40153;DHT22;26371;56.992;23.912;2023-01-15T12:07:12;3.40;99.90
40153;DHT22;26371;56.992;23.912;2023-01-15T12:09:59;3.40;99.90
40153;DHT22;26371;56.992;23.912;2023-01-15T12:12:38;3.40;99.90
40153;DHT22;26371;56.992;23.912;2023-01-15T12:15:18;3.40;99.90
40153;DHT22;26371;56.992;23.912;2023-01-15T12:18:01;3.30;99.90
40153;DHT22;26371;56.992;23.912;2023-01-15T12:20:45;3.30;99.90
40153;DHT22;26371;56.992;23.912;2023-01-15T12:23:40;3.30;99.90
40153;DHT22;26371;56.992;23.912;2023-01-15T12:26:17;3.30;99.90
40153;DHT22;26371;56.992;23.912;2023-01-15T12:28:56;3.20;99.90
40153;DHT22;26371;56.992;23.912;2023-01-15T12:31:29;3.20;99.90
40153;DHT22;26371;56.992;23.912;2023-01-15T12:34:05;3.20;99.90
40153;DHT22;26371;56.992;23.912;2023-01-15T12:36:39;3.20;99.90
40153;DHT22;26371;56.992;23.912;2023-01-15T12:39:15;3.20;99.90
40153;DHT22;26371;56.992;23.912;2023-01-15T12:41:46;3.20;99.90
40153;DHT22;26371;56.992;23.912;2023-01-15T12:44:35;3.20;99.90
40153;DHT22;26371;56.992;23.912;2023-01-15T12:47:26;3.20;99.90
40153;DHT22;26371;56.992;23.912;2023-01-15T12:50:05;3.20;99.90
40153;DHT22;26371;56.992;23.912;2023-01-15T12:52:39;3.20;99.90
40153;DHT22;26371;56.992;23.912;2023-01-15T12:55:14;3.20;99.90
40153;DHT22;26371;56.992;23.912;2023-01-15T12:57:46;3.20;99.90
40153;DHT22;26371;56.992;23.912;2023-01-15T13:00:19;3.20;99.90
40153;DHT22;26371;56.992;23.912;2023-01-15T13:03:00;3.20;99.90
40153;DHT22;26371;56.992;23.912;2023-01-15T13:05:38;3.20;99.90
40153;DHT22;26371;56.992;23.912;2023-01-15T13:08:12;3.20;99.90
40153;DHT22;26371;56.992;23.912;2023-01-15T13:10:48;3.20;99.90
40153;DHT22;26371;56.992;23.912;2023-01-15T13:13:19;3.10;99.90
40153;DHT22;26371;56.992;23.912;2023-01-15T13:16:04;3.10;99.90
40153;DHT22;26371;56.992;23.912;2023-01-15T13:18:42;3.10;99.90
40153;DHT22;26371;56.992;23.912;2023-01-15T13:21:16;3.10;99.90
40153;DHT22;26371;56.992;23.912;2023-01-15T13:24:07;3.10;99.90
40153;DHT22;26371;56.992;23.912;2023-01-15T13:26:55;3.10;99.90
40153;DHT22;26371;56.992;23.912;2023-01-15T13:29:35;3.10;99.90
40153;DHT22;26371;56.992;23.912;2023-01-15T13:32:11;3.10;99.90
40153;DHT22;26371;56.992;23.912;2023-01-15T13:34:45;3.10;99.90
40153;DHT22;26371;56.992;23.912;2023-01-15T13:37:24;3.10;99.90
40153;DHT22;26371;56.992;23.912;2023-01-15T13:39:56;3.10;99.90
40153;DHT22;26371;56.992;23.912;2023-01-15T13:42:26;3.10;99.90
40153;DHT22;26371;56.992;23.912;2023-01-15T13:45:21;3.10;99.90
40153;DHT22;26371;56.992;23.912;2023-01-15T13:47:57;3.10;99.90
40153;DHT22;26371;56.992;23.912;2023-01-15T13:50:30;3.10;99.90
40153;DHT22;26371;56.992;23.912;2023-01-15T13:53:05;3.10;99.90
40153;DHT22;26371;56.992;23.912;2023-01-15T13:55:37;3.10;99.90
40153;DHT22;26371;56.992;23.912;2023-01-15T13:58:20;3.10;99.90
40153;DHT22;26371;56.992;23.912;2023-01-15T14:01:01;3.10;99.90
40153;DHT22;26371;56.992;23.912;2023-01-15T14:03:32;3.10;99.90
40153;DHT22;26371;56.992;23.912;2023-01-15T14:06:03;3.10;99.90
40153;DHT22;26371;56.992;23.912;2023-01-15T14:08:41;3.10;99.90
40153;DHT22;26371;56.992;23.912;2023-01-15T14:11:34;3.10;99.90
40153;DHT22;26371;56.992;23.912;2023-01-15T14:17:03;3.10;99.90
40153;DHT22;26371;56.992;23.912;2023-01-15T14:22:55;3.20;99.90
40153;DHT22;26371;56.992;23.912;2023-01-15T14:25:37;3.20;99.90
40153;DHT22;26371;56.992;23.912;2023-01-15T14:28:28;3.20;99.90
40153;DHT22;26371;56.992;23.912;2023-01-15T14:31:13;3.20;99.90
40153;DHT22;26371;56.992;23.912;2023-01-15T14:33:55;3.20;99.90
40153;DHT22;26371;56.992;23.912;2023-01-15T14:36:34;3.20;99.90
40153;DHT22;26371;56.992;23.912;2023-01-15T14:39:19;3.20;99.90
40153;DHT22;26371;56.992;23.912;2023-01-15T14:41:58;3.20;99.90
40153;DHT22;26371;56.992;23.912;2023-01-15T14:44:46;3.20;99.90
40153;DHT22;26371;56.992;23.912;2023-01-15T14:47:27;3.20;99.90
40153;DHT22;26371;56.992;23.912;2023-01-15T14:50:17;3.20;99.90
40153;DHT22;26371;56.992;23.912;2023-01-15T14:52:50;3.20;99.90
40153;DHT22;26371;56.992;23.912;2023-01-15T14:55:20;3.20;99.90
40153;DHT22;26371;56.992;23.912;2023-01-15T14:57:56;3.20;99.90
40153;DHT22;26371;56.992;23.912;2023-01-15T15:00:31;3.20;99.90
40153;DHT22;26371;56.992;23.912;2023-01-15T15:03:02;3.20;99.90
40153;DHT22;26371;56.992;23.912;2023-01-15T15:05:41;3.20;99.90
40153;DHT22;26371;56.992;23.912;2023-01-15T15:08:13;3.20;99.90
40153;DHT22;26371;56.992;23.912;2023-01-15T15:10:44;3.20;99.90
40153;DHT22;26371;56.992;23.912;2023-01-15T15:13:26;3.20;99.90
40153;DHT22;26371;56.992;23.912;2023-01-15T15:16:03;3.30;99.90
40153;DHT22;26371;56.992;23.912;2023-01-15T15:18:38;3.20;99.90
40153;DHT22;26371;56.992;23.912;2023-01-15T15:21:15;3.20;99.90
40153;DHT22;26371;56.992;23.912;2023-01-15T15:23:50;3.20;99.90
40153;DHT22;26371;56.992;23.912;2023-01-15T15:26:25;3.20;99.90
40153;DHT22;26371;56.992;23.912;2023-01-15T15:28:57;3.20;99.90
40153;DHT22;26371;56.992;23.912;2023-01-15T15:31:26;3.20;99.90
40153;DHT22;26371;56.992;23.912;2023-01-15T15:33:56;3.30;99.90
40153;DHT22;26371;56.992;23.912;2023-01-15T15:36:29;3.30;99.90
40153;DHT22;26371;56.992;23.912;2023-01-15T15:39:01;3.30;99.90
40153;DHT22;26371;56.992;23.912;2023-01-15T15:41:32;3.20;99.90
40153;DHT22;26371;56.992;23.912;2023-01-15T15:44:33;3.30;99.90
40153;DHT22;26371;56.992;23.912;2023-01-15T15:47:23;3.30;99.90
40153;DHT22;26371;56.992;23.912;2023-01-15T15:50:19;3.30;99.90
40153;DHT22;26371;56.992;23.912;2023-01-15T15:52:49;3.30;99.90
40153;DHT22;26371;56.992;23.912;2023-01-15T15:55:19;3.30;99.90
40153;DHT22;26371;56.992;23.912;2023-01-15T15:57:59;3.30;99.90
40153;DHT22;26371;56.992;23.912;2023-01-15T16:00:32;3.30;99.90
40153;DHT22;26371;56.992;23.912;2023-01-15T16:03:05;3.30;99.90
40153;DHT22;26371;56.992;23.912;2023-01-15T16:05:35;3.40;99.90
40153;DHT22;26371;56.992;23.912;2023-01-15T16:08:09;3.40;99.90
40153;DHT22;26371;56.992;23.912;2023-01-15T16:10:43;3.40;99.90
40153;DHT22;26371;56.992;23.912;2023-01-15T16:13:12;3.40;99.90
40153;DHT22;26371;56.992;23.912;2023-01-15T16:15:45;3.50;99.90
40153;DHT22;26371;56.992;23.912;2023-01-15T16:18:21;3.50;99.90
40153;DHT22;26371;56.992;23.912;2023-01-15T16:20:50;3.50;99.90
40153;DHT22;26371;56.992;23.912;2023-01-15T16:23:20;3.50;99.90